sensor_id;sensor_type;location;lat;lon;timestamp;pressure;altitude;pressure_sealevel;temperature;humidity
81162;BME280;70638;-33.792;151.032;2023-07-29T00:00:43;101649.16;;;16.92;69.97
81162;BME280;70638;-33.792;151.032;2023-07-29T00:03:08;101644.09;;;17.01;69.44
81162;BME280;70638;-33.792;151.032;2023-07-29T00:05:40;101637.75;;;17.18;70.03
81162;BME280;70638;-33.792;151.032;2023-07-29T00:08:10;101640.92;;;17.33;69.01
81162;BME280;70638;-33.792;151.032;2023-07-29T00:10:40;101635.45;;;17.37;68.06
81162;BME280;70638;-33.792;151.032;2023-07-29T00:13:10;101632.66;;;17.53;67.89
81162;BME280;70638;-33.792;151.032;2023-07-29T00:15:40;101630.27;;;17.56;66.49
81162;BME280;70638;-33.792;151.032;2023-07-29T00:18:11;101630.10;;;17.64;65.88
81162;BME280;70638;-33.792;151.032;2023-07-29T00:20:41;101624.28;;;17.76;66.14
81162;BME280;70638;-33.792;151.032;2023-07-29T00:23:15;101613.30;;;17.82;65.96
81162;BME280;70638;-33.792;151.032;2023-07-29T00:25:41;101614.62;;;17.94;66.48
81162;BME280;70638;-33.792;151.032;2023-07-29T00:28:12;101608.47;;;18.25;63.96
81162;BME280;70638;-33.792;151.032;2023-07-29T00:30:43;101607.99;;;18.40;65.11
81162;BME280;70638;-33.792;151.032;2023-07-29T00:33:13;101606.57;;;18.60;64.28
81162;BME280;70638;-33.792;151.032;2023-07-29T00:35:43;101604.00;;;18.69;64.70
81162;BME280;70638;-33.792;151.032;2023-07-29T00:38:13;101596.09;;;18.83;62.43
81162;BME280;70638;-33.792;151.032;2023-07-29T00:40:43;101590.66;;;19.06;56.58
81162;BME280;70638;-33.792;151.032;2023-07-29T00:43:13;101582.89;;;19.08;56.32
81162;BME280;70638;-33.792;151.032;2023-07-29T00:45:44;101580.47;;;19.16;55.76
81162;BME280;70638;-33.792;151.032;2023-07-29T00:48:15;101578.53;;;19.27;56.64
81162;BME280;70638;-33.792;151.032;2023-07-29T00:50:45;101576.88;;;19.21;54.14
81162;BME280;70638;-33.792;151.032;2023-07-29T00:53:16;101575.23;;;19.35;53.51
81162;BME280;70638;-33.792;151.032;2023-07-29T00:55:46;101568.59;;;19.53;54.74
81162;BME280;70638;-33.792;151.032;2023-07-29T00:58:16;101561.34;;;19.62;54.08
81162;BME280;70638;-33.792;151.032;2023-07-29T01:00:47;101554.64;;;19.75;51.54
81162;BME280;70638;-33.792;151.032;2023-07-29T01:03:17;101546.80;;;19.91;52.95
81162;BME280;70638;-33.792;151.032;2023-07-29T01:08:38;101541.00;;;19.79;53.67
81162;BME280;70638;-33.792;151.032;2023-07-29T01:11:17;101533.62;;;20.07;52.05
81162;BME280;70638;-33.792;151.032;2023-07-29T01:13:37;101534.64;;;20.26;53.00
81162;BME280;70638;-33.792;151.032;2023-07-29T01:16:01;101533.05;;;20.45;52.12
81162;BME280;70638;-33.792;151.032;2023-07-29T01:18:31;101523.08;;;20.75;51.81
81162;BME280;70638;-33.792;151.032;2023-07-29T01:20:53;101518.42;;;20.77;51.34
81162;BME280;70638;-33.792;151.032;2023-07-29T01:23:25;101511.62;;;20.91;49.98
81162;BME280;70638;-33.792;151.032;2023-07-29T01:25:52;101502.27;;;20.99;48.73
81162;BME280;70638;-33.792;151.032;2023-07-29T01:28:22;101494.14;;;20.79;48.27
81162;BME280;70638;-33.792;151.032;2023-07-29T01:33:26;101489.14;;;20.54;50.41
81162;BME280;70638;-33.792;151.032;2023-07-29T01:36:02;101485.89;;;20.48;50.58
81162;BME280;70638;-33.792;151.032;2023-07-29T01:38:31;101480.22;;;20.58;50.44
81162;BME280;70638;-33.792;151.032;2023-07-29T01:40:54;101473.77;;;20.84;48.82
81162;BME280;70638;-33.792;151.032;2023-07-29T01:43:31;101470.52;;;20.72;47.45
81162;BME280;70638;-33.792;151.032;2023-07-29T01:45:55;101467.45;;;20.84;49.78
81162;BME280;70638;-33.792;151.032;2023-07-29T01:48:25;101460.04;;;20.79;49.44
81162;BME280;70638;-33.792;151.032;2023-07-29T01:50:55;101456.15;;;20.73;46.68
81162;BME280;70638;-33.792;151.032;2023-07-29T01:53:26;101448.47;;;20.86;46.21
81162;BME280;70638;-33.792;151.032;2023-07-29T01:55:56;101448.72;;;21.02;48.10
81162;BME280;70638;-33.792;151.032;2023-07-29T01:58:26;101442.38;;;20.91;48.13
81162;BME280;70638;-33.792;151.032;2023-07-29T02:00:56;101430.52;;;20.84;48.13
81162;BME280;70638;-33.792;151.032;2023-07-29T02:03:33;101430.62;;;20.95;47.76
81162;BME280;70638;-33.792;151.032;2023-07-29T02:05:58;101425.61;;;20.90;47.68
81162;BME280;70638;-33.792;151.032;2023-07-29T02:08:28;101416.23;;;20.85;46.81
81162;BME280;70638;-33.792;151.032;2023-07-29T02:10:58;101416.02;;;20.79;47.51
81162;BME280;70638;-33.792;151.032;2023-07-29T02:13:29;101414.97;;;20.72;48.17
81162;BME280;70638;-33.792;151.032;2023-07-29T02:15:59;101413.66;;;20.62;49.63
81162;BME280;70638;-33.792;151.032;2023-07-29T02:18:29;101409.06;;;20.51;49.25
81162;BME280;70638;-33.792;151.032;2023-07-29T02:20:59;101402.38;;;20.36;50.25
81162;BME280;70638;-33.792;151.032;2023-07-29T02:23:29;101392.99;;;20.50;49.79
81162;BME280;70638;-33.792;151.032;2023-07-29T02:25:59;101391.65;;;20.68;49.62
81162;BME280;70638;-33.792;151.032;2023-07-29T02:28:29;101385.92;;;20.81;49.13
81162;BME280;70638;-33.792;151.032;2023-07-29T02:31:19;101381.14;;;20.90;47.44
81162;BME280;70638;-33.792;151.032;2023-07-29T02:33:30;101378.48;;;20.96;47.52
81162;BME280;70638;-33.792;151.032;2023-07-29T02:36:01;101370.86;;;21.06;46.51
81162;BME280;70638;-33.792;151.032;2023-07-29T02:38:31;101357.44;;;21.16;45.94
81162;BME280;70638;-33.792;151.032;2023-07-29T02:41:01;101357.45;;;21.38;45.98
81162;BME280;70638;-33.792;151.032;2023-07-29T02:43:31;101345.65;;;21.39;47.01
81162;BME280;70638;-33.792;151.032;2023-07-29T02:46:08;101345.88;;;21.37;45.23
81162;BME280;70638;-33.792;151.032;2023-07-29T02:48:32;101338.28;;;21.36;46.77
81162;BME280;70638;-33.792;151.032;2023-07-29T02:51:02;101334.72;;;21.25;45.89
81162;BME280;70638;-33.792;151.032;2023-07-29T02:53:32;101326.27;;;21.23;46.04
81162;BME280;70638;-33.792;151.032;2023-07-29T02:56:02;101330.10;;;21.51;46.02
81162;BME280;70638;-33.792;151.032;2023-07-29T02:58:32;101321.09;;;21.61;46.07
81162;BME280;70638;-33.792;151.032;2023-07-29T03:01:04;101314.55;;;21.58;42.82
81162;BME280;70638;-33.792;151.032;2023-07-29T03:03:34;101309.33;;;21.64;43.33
81162;BME280;70638;-33.792;151.032;2023-07-29T03:06:09;101308.23;;;21.54;46.49
81162;BME280;70638;-33.792;151.032;2023-07-29T03:08:34;101304.83;;;21.55;45.25
81162;BME280;70638;-33.792;151.032;2023-07-29T03:11:09;101298.62;;;21.42;44.59
81162;BME280;70638;-33.792;151.032;2023-07-29T03:13:35;101304.97;;;21.40;48.03
81162;BME280;70638;-33.792;151.032;2023-07-29T03:16:06;101305.30;;;21.14;46.05
81162;BME280;70638;-33.792;151.032;2023-07-29T03:18:36;101309.02;;;21.35;45.65
81162;BME280;70638;-33.792;151.032;2023-07-29T03:21:07;101301.80;;;21.70;46.69
81162;BME280;70638;-33.792;151.032;2023-07-29T03:23:37;101297.67;;;21.80;45.91
81162;BME280;70638;-33.792;151.032;2023-07-29T03:26:14;101292.95;;;21.88;45.08
81162;BME280;70638;-33.792;151.032;2023-07-29T03:28:43;101289.61;;;22.23;45.13
81162;BME280;70638;-33.792;151.032;2023-07-29T03:31:08;101290.42;;;22.37;46.03
81162;BME280;70638;-33.792;151.032;2023-07-29T03:33:38;101284.70;;;22.58;44.28
81162;BME280;70638;-33.792;151.032;2023-07-29T03:36:08;101289.80;;;22.77;43.38
81162;BME280;70638;-33.792;151.032;2023-07-29T03:38:42;101284.52;;;22.58;43.33
81162;BME280;70638;-33.792;151.032;2023-07-29T03:41:09;101278.27;;;22.37;42.37
81162;BME280;70638;-33.792;151.032;2023-07-29T03:43:39;101278.69;;;22.43;44.07
81162;BME280;70638;-33.792;151.032;2023-07-29T03:46:10;101278.67;;;22.38;43.70
81162;BME280;70638;-33.792;151.032;2023-07-29T03:48:40;101274.82;;;22.33;42.92
81162;BME280;70638;-33.792;151.032;2023-07-29T03:51:10;101279.49;;;22.02;42.83
81162;BME280;70638;-33.792;151.032;2023-07-29T03:53:40;101275.22;;;22.03;43.28
81162;BME280;70638;-33.792;151.032;2023-07-29T03:56:10;101276.73;;;22.06;42.82
81162;BME280;70638;-33.792;151.032;2023-07-29T03:58:40;101273.02;;;21.94;42.52
81162;BME280;70638;-33.792;151.032;2023-07-29T04:01:11;101271.92;;;22.18;42.55
81162;BME280;70638;-33.792;151.032;2023-07-29T04:03:41;101269.34;;;22.38;43.04
81162;BME280;70638;-33.792;151.032;2023-07-29T04:06:12;101265.70;;;22.57;43.06
81162;BME280;70638;-33.792;151.032;2023-07-29T04:08:43;101262.98;;;22.21;42.04
81162;BME280;70638;-33.792;151.032;2023-07-29T04:11:17;101263.18;;;22.27;42.12
81162;BME280;70638;-33.792;151.032;2023-07-29T04:13:43;101262.30;;;22.12;45.71
81162;BME280;70638;-33.792;151.032;2023-07-29T04:16:13;101265.85;;;22.11;44.43
81162;BME280;70638;-33.792;151.032;2023-07-29T04:18:43;101270.74;;;22.15;44.44
81162;BME280;70638;-33.792;151.032;2023-07-29T04:21:14;101266.79;;;22.18;44.45
81162;BME280;70638;-33.792;151.032;2023-07-29T04:23:43;101264.72;;;21.93;43.73
81162;BME280;70638;-33.792;151.032;2023-07-29T04:26:14;101269.41;;;21.95;44.04
81162;BME280;70638;-33.792;151.032;2023-07-29T04:28:44;101274.53;;;21.89;44.61
81162;BME280;70638;-33.792;151.032;2023-07-29T04:31:14;101278.50;;;21.74;42.34
81162;BME280;70638;-33.792;151.032;2023-07-29T04:33:45;101280.38;;;21.66;43.05
81162;BME280;70638;-33.792;151.032;2023-07-29T04:36:14;101275.72;;;21.71;44.11
81162;BME280;70638;-33.792;151.032;2023-07-29T04:38:44;101272.35;;;21.78;44.95
81162;BME280;70638;-33.792;151.032;2023-07-29T04:41:15;101277.49;;;21.72;44.84
81162;BME280;70638;-33.792;151.032;2023-07-29T04:43:45;101278.58;;;21.59;44.13
81162;BME280;70638;-33.792;151.032;2023-07-29T04:46:15;101277.22;;;21.59;45.03
81162;BME280;70638;-33.792;151.032;2023-07-29T04:48:45;101275.10;;;21.56;44.28
81162;BME280;70638;-33.792;151.032;2023-07-29T04:51:15;101268.51;;;21.49;44.06
81162;BME280;70638;-33.792;151.032;2023-07-29T04:53:52;101270.00;;;21.54;46.16
81162;BME280;70638;-33.792;151.032;2023-07-29T04:56:15;101270.41;;;21.49;46.11
81162;BME280;70638;-33.792;151.032;2023-07-29T04:58:46;101275.77;;;21.43;46.30
81162;BME280;70638;-33.792;151.032;2023-07-29T05:01:16;101278.47;;;21.54;44.31
81162;BME280;70638;-33.792;151.032;2023-07-29T05:03:46;101280.08;;;21.50;45.10
81162;BME280;70638;-33.792;151.032;2023-07-29T05:06:16;101275.73;;;21.46;45.33
81162;BME280;70638;-33.792;151.032;2023-07-29T05:08:46;101274.58;;;21.44;47.38
81162;BME280;70638;-33.792;151.032;2023-07-29T05:11:16;101273.53;;;21.36;47.70
81162;BME280;70638;-33.792;151.032;2023-07-29T05:13:46;101281.52;;;21.22;48.62
81162;BME280;70638;-33.792;151.032;2023-07-29T05:16:18;101281.77;;;21.15;46.58
81162;BME280;70638;-33.792;151.032;2023-07-29T05:18:47;101281.59;;;21.07;48.28
81162;BME280;70638;-33.792;151.032;2023-07-29T05:21:20;101282.03;;;20.95;48.29
81162;BME280;70638;-33.792;151.032;2023-07-29T05:23:48;101276.23;;;20.94;48.94
81162;BME280;70638;-33.792;151.032;2023-07-29T05:26:18;101277.28;;;20.83;49.30
81162;BME280;70638;-33.792;151.032;2023-07-29T05:28:48;101274.27;;;20.64;49.53
81162;BME280;70638;-33.792;151.032;2023-07-29T05:31:18;101277.55;;;20.58;49.49
81162;BME280;70638;-33.792;151.032;2023-07-29T05:33:49;101271.95;;;20.49;49.89
81162;BME280;70638;-33.792;151.032;2023-07-29T05:36:28;101263.66;;;20.51;48.97
81162;BME280;70638;-33.792;151.032;2023-07-29T05:38:50;101260.16;;;20.54;52.10
81162;BME280;70638;-33.792;151.032;2023-07-29T05:41:20;101256.31;;;20.40;51.13
81162;BME280;70638;-33.792;151.032;2023-07-29T05:43:50;101257.31;;;20.30;50.86
81162;BME280;70638;-33.792;151.032;2023-07-29T05:46:20;101250.67;;;20.27;50.44
81162;BME280;70638;-33.792;151.032;2023-07-29T05:48:50;101254.75;;;20.05;52.92
81162;BME280;70638;-33.792;151.032;2023-07-29T05:51:21;101250.56;;;19.87;54.56
81162;BME280;70638;-33.792;151.032;2023-07-29T05:53:51;101251.05;;;19.72;52.15
81162;BME280;70638;-33.792;151.032;2023-07-29T05:56:21;101252.02;;;19.60;52.37
81162;BME280;70638;-33.792;151.032;2023-07-29T05:58:56;101255.61;;;19.53;54.93
81162;BME280;70638;-33.792;151.032;2023-07-29T06:01:23;101262.13;;;19.42;56.31
81162;BME280;70638;-33.792;151.032;2023-07-29T06:03:53;101255.41;;;19.32;55.75
81162;BME280;70638;-33.792;151.032;2023-07-29T06:06:23;101262.44;;;19.25;56.56
81162;BME280;70638;-33.792;151.032;2023-07-29T06:08:53;101263.12;;;19.23;58.19
81162;BME280;70638;-33.792;151.032;2023-07-29T06:11:23;101261.51;;;19.23;59.84
81162;BME280;70638;-33.792;151.032;2023-07-29T06:13:53;101260.81;;;19.19;58.03
81162;BME280;70638;-33.792;151.032;2023-07-29T06:16:24;101268.42;;;19.08;59.58
81162;BME280;70638;-33.792;151.032;2023-07-29T06:18:55;101273.55;;;19.03;59.29
81162;BME280;70638;-33.792;151.032;2023-07-29T06:21:29;101278.75;;;18.99;61.67
81162;BME280;70638;-33.792;151.032;2023-07-29T06:23:56;101278.16;;;19.05;59.98
81162;BME280;70638;-33.792;151.032;2023-07-29T06:26:26;101283.02;;;18.99;59.12
81162;BME280;70638;-33.792;151.032;2023-07-29T06:28:56;101289.86;;;18.98;60.64
81162;BME280;70638;-33.792;151.032;2023-07-29T06:31:26;101291.02;;;18.76;62.05
81162;BME280;70638;-33.792;151.032;2023-07-29T06:33:57;101284.70;;;18.58;62.60
81162;BME280;70638;-33.792;151.032;2023-07-29T06:36:27;101295.14;;;18.34;62.92
81162;BME280;70638;-33.792;151.032;2023-07-29T06:38:57;101289.04;;;18.16;63.23
81162;BME280;70638;-33.792;151.032;2023-07-29T06:41:27;101289.83;;;18.01;63.71
81162;BME280;70638;-33.792;151.032;2023-07-29T06:43:57;101301.02;;;17.83;64.98
81162;BME280;70638;-33.792;151.032;2023-07-29T06:46:28;101301.82;;;17.67;65.22
81162;BME280;70638;-33.792;151.032;2023-07-29T06:48:58;101302.04;;;17.58;65.02
81162;BME280;70638;-33.792;151.032;2023-07-29T06:51:28;101305.11;;;17.60;64.05
81162;BME280;70638;-33.792;151.032;2023-07-29T06:53:58;101305.66;;;17.50;64.77
81162;BME280;70638;-33.792;151.032;2023-07-29T06:56:28;101314.04;;;17.44;64.79
81162;BME280;70638;-33.792;151.032;2023-07-29T06:58:59;101310.53;;;17.37;64.78
81162;BME280;70638;-33.792;151.032;2023-07-29T07:01:29;101315.73;;;17.31;65.44
81162;BME280;70638;-33.792;151.032;2023-07-29T07:04:07;101314.05;;;17.21;66.60
81162;BME280;70638;-33.792;151.032;2023-07-29T07:06:29;101312.03;;;17.12;66.75
81162;BME280;70638;-33.792;151.032;2023-07-29T07:08:59;101315.39;;;16.96;67.24
81162;BME280;70638;-33.792;151.032;2023-07-29T07:11:30;101318.34;;;16.82;67.73
81162;BME280;70638;-33.792;151.032;2023-07-29T07:14:00;101319.72;;;16.70;68.19
81162;BME280;70638;-33.792;151.032;2023-07-29T07:16:32;101314.92;;;16.57;68.44
81162;BME280;70638;-33.792;151.032;2023-07-29T07:19:01;101321.46;;;16.41;69.14
81162;BME280;70638;-33.792;151.032;2023-07-29T07:21:31;101321.02;;;16.28;69.68
81162;BME280;70638;-33.792;151.032;2023-07-29T07:24:05;101323.26;;;16.12;70.51
81162;BME280;70638;-33.792;151.032;2023-07-29T07:26:32;101338.71;;;16.18;70.63
81162;BME280;70638;-33.792;151.032;2023-07-29T07:29:02;101338.77;;;16.16;70.92
81162;BME280;70638;-33.792;151.032;2023-07-29T07:31:33;101348.29;;;15.98;71.54
81162;BME280;70638;-33.792;151.032;2023-07-29T07:34:04;101350.12;;;15.82;72.45
81162;BME280;70638;-33.792;151.032;2023-07-29T07:36:33;101348.59;;;15.93;72.11
81162;BME280;70638;-33.792;151.032;2023-07-29T07:39:03;101346.25;;;15.85;72.17
81162;BME280;70638;-33.792;151.032;2023-07-29T07:41:34;101349.81;;;15.68;72.63
81162;BME280;70638;-33.792;151.032;2023-07-29T07:44:05;101360.48;;;15.48;73.19
81162;BME280;70638;-33.792;151.032;2023-07-29T07:46:40;101366.00;;;15.43;73.61
81162;BME280;70638;-33.792;151.032;2023-07-29T07:49:06;101367.95;;;15.44;73.72
81162;BME280;70638;-33.792;151.032;2023-07-29T07:51:36;101371.08;;;15.44;73.39
81162;BME280;70638;-33.792;151.032;2023-07-29T07:54:06;101372.19;;;15.43;73.89
81162;BME280;70638;-33.792;151.032;2023-07-29T07:56:36;101369.44;;;15.37;73.86
81162;BME280;70638;-33.792;151.032;2023-07-29T07:59:07;101374.01;;;15.20;75.02
81162;BME280;70638;-33.792;151.032;2023-07-29T08:01:37;101384.62;;;15.05;75.40
81162;BME280;70638;-33.792;151.032;2023-07-29T08:04:07;101385.30;;;14.96;75.41
81162;BME280;70638;-33.792;151.032;2023-07-29T08:09:08;101398.16;;;14.77;76.52
81162;BME280;70638;-33.792;151.032;2023-07-29T08:11:38;101400.52;;;14.72;76.61
81162;BME280;70638;-33.792;151.032;2023-07-29T08:14:08;101400.82;;;14.60;77.27
81162;BME280;70638;-33.792;151.032;2023-07-29T08:16:38;101402.20;;;14.51;77.14
81162;BME280;70638;-33.792;151.032;2023-07-29T08:19:11;101404.59;;;14.46;77.35
81162;BME280;70638;-33.792;151.032;2023-07-29T08:21:39;101407.12;;;14.43;77.59
81162;BME280;70638;-33.792;151.032;2023-07-29T08:24:10;101408.16;;;14.39;77.80
81162;BME280;70638;-33.792;151.032;2023-07-29T08:26:40;101411.13;;;14.32;77.98
81162;BME280;70638;-33.792;151.032;2023-07-29T08:29:17;101410.59;;;14.26;78.32
81162;BME280;70638;-33.792;151.032;2023-07-29T08:31:41;101412.30;;;14.23;78.33
81162;BME280;70638;-33.792;151.032;2023-07-29T08:34:11;101416.27;;;14.19;78.47
81162;BME280;70638;-33.792;151.032;2023-07-29T08:36:41;101415.11;;;14.08;78.55
81162;BME280;70638;-33.792;151.032;2023-07-29T08:39:11;101417.91;;;14.04;78.82
81162;BME280;70638;-33.792;151.032;2023-07-29T08:41:48;101419.09;;;13.96;79.36
81162;BME280;70638;-33.792;151.032;2023-07-29T08:44:26;101421.20;;;13.89;79.93
81162;BME280;70638;-33.792;151.032;2023-07-29T08:46:43;101426.48;;;13.82;79.21
81162;BME280;70638;-33.792;151.032;2023-07-29T08:49:19;101431.56;;;13.76;80.32
81162;BME280;70638;-33.792;151.032;2023-07-29T08:51:45;101435.42;;;13.74;80.96
81162;BME280;70638;-33.792;151.032;2023-07-29T08:54:15;101432.20;;;13.71;81.21
81162;BME280;70638;-33.792;151.032;2023-07-29T08:56:45;101434.08;;;13.68;81.04
81162;BME280;70638;-33.792;151.032;2023-07-29T08:59:15;101438.50;;;13.62;80.51
81162;BME280;70638;-33.792;151.032;2023-07-29T09:01:45;101440.24;;;13.53;80.99
81162;BME280;70638;-33.792;151.032;2023-07-29T09:04:15;101433.24;;;13.44;81.38
81162;BME280;70638;-33.792;151.032;2023-07-29T09:06:47;101433.19;;;13.37;81.80
81162;BME280;70638;-33.792;151.032;2023-07-29T09:09:15;101431.81;;;13.30;82.06
81162;BME280;70638;-33.792;151.032;2023-07-29T09:11:46;101436.28;;;13.34;81.48
81162;BME280;70638;-33.792;151.032;2023-07-29T09:14:17;101435.95;;;13.34;80.74
81162;BME280;70638;-33.792;151.032;2023-07-29T09:16:48;101440.44;;;13.25;82.42
81162;BME280;70638;-33.792;151.032;2023-07-29T09:19:19;101440.12;;;13.16;82.92
81162;BME280;70638;-33.792;151.032;2023-07-29T09:21:48;101436.97;;;13.05;82.76
81162;BME280;70638;-33.792;151.032;2023-07-29T09:24:21;101445.31;;;12.98;83.21
81162;BME280;70638;-33.792;151.032;2023-07-29T09:26:50;101451.00;;;12.94;83.47
81162;BME280;70638;-33.792;151.032;2023-07-29T09:29:22;101449.07;;;12.87;83.15
81162;BME280;70638;-33.792;151.032;2023-07-29T09:32:17;101448.36;;;12.76;83.89
81162;BME280;70638;-33.792;151.032;2023-07-29T09:34:20;101449.59;;;12.69;84.19
81162;BME280;70638;-33.792;151.032;2023-07-29T09:36:50;101451.95;;;12.63;84.67
81162;BME280;70638;-33.792;151.032;2023-07-29T09:39:23;101450.11;;;12.57;83.99
81162;BME280;70638;-33.792;151.032;2023-07-29T09:41:52;101458.23;;;12.53;84.57
81162;BME280;70638;-33.792;151.032;2023-07-29T09:44:22;101458.13;;;12.48;84.55
81162;BME280;70638;-33.792;151.032;2023-07-29T09:46:52;101457.12;;;12.49;84.82
81162;BME280;70638;-33.792;151.032;2023-07-29T09:49:22;101455.61;;;12.58;84.07
81162;BME280;70638;-33.792;151.032;2023-07-29T09:51:58;101459.64;;;12.63;83.57
81162;BME280;70638;-33.792;151.032;2023-07-29T09:54:23;101464.59;;;12.62;83.83
81162;BME280;70638;-33.792;151.032;2023-07-29T09:56:53;101473.00;;;12.59;83.90
81162;BME280;70638;-33.792;151.032;2023-07-29T09:59:24;101472.05;;;12.60;83.47
81162;BME280;70638;-33.792;151.032;2023-07-29T10:01:54;101479.54;;;12.60;83.89
81162;BME280;70638;-33.792;151.032;2023-07-29T10:04:26;101477.91;;;12.51;84.15
81162;BME280;70638;-33.792;151.032;2023-07-29T10:06:57;101479.25;;;12.38;84.19
81162;BME280;70638;-33.792;151.032;2023-07-29T10:09:25;101473.38;;;12.33;84.54
81162;BME280;70638;-33.792;151.032;2023-07-29T10:11:57;101472.98;;;12.29;84.75
81162;BME280;70638;-33.792;151.032;2023-07-29T10:14:28;101473.47;;;12.25;84.40
81162;BME280;70638;-33.792;151.032;2023-07-29T10:16:57;101472.22;;;12.20;84.89
81162;BME280;70638;-33.792;151.032;2023-07-29T10:19:28;101473.66;;;12.15;84.83
81162;BME280;70638;-33.792;151.032;2023-07-29T10:22:03;101473.50;;;12.10;84.80
81162;BME280;70638;-33.792;151.032;2023-07-29T10:24:32;101473.48;;;12.08;84.59
81162;BME280;70638;-33.792;151.032;2023-07-29T10:27:00;101476.89;;;12.13;84.42
81162;BME280;70638;-33.792;151.032;2023-07-29T10:29:31;101473.07;;;12.24;83.80
81162;BME280;70638;-33.792;151.032;2023-07-29T10:32:02;101476.50;;;12.31;82.96
81162;BME280;70638;-33.792;151.032;2023-07-29T10:34:38;101478.42;;;12.39;82.69
81162;BME280;70638;-33.792;151.032;2023-07-29T10:37:00;101481.52;;;12.41;82.33
81162;BME280;70638;-33.792;151.032;2023-07-29T10:39:40;101484.65;;;12.41;82.32
81162;BME280;70638;-33.792;151.032;2023-07-29T10:42:06;101492.96;;;12.34;83.60
81162;BME280;70638;-33.792;151.032;2023-07-29T10:44:48;101500.47;;;12.32;82.84
81162;BME280;70638;-33.792;151.032;2023-07-29T10:47:16;101503.31;;;12.28;83.18
81162;BME280;70638;-33.792;151.032;2023-07-29T10:49:35;101505.03;;;12.23;83.27
81162;BME280;70638;-33.792;151.032;2023-07-29T10:52:08;101505.00;;;12.31;82.67
81162;BME280;70638;-33.792;151.032;2023-07-29T10:54:46;101501.98;;;12.29;82.85
81162;BME280;70638;-33.792;151.032;2023-07-29T10:57:04;101500.80;;;12.31;82.28
81162;BME280;70638;-33.792;151.032;2023-07-29T10:59:34;101506.77;;;12.28;82.94
81162;BME280;70638;-33.792;151.032;2023-07-29T11:02:12;101496.82;;;12.28;82.46
81162;BME280;70638;-33.792;151.032;2023-07-29T11:04:46;101499.34;;;12.33;81.92
81162;BME280;70638;-33.792;151.032;2023-07-29T11:09:42;101508.39;;;12.37;82.12
81162;BME280;70638;-33.792;151.032;2023-07-29T11:14:38;101510.82;;;12.33;81.53
81162;BME280;70638;-33.792;151.032;2023-07-29T11:17:08;101510.62;;;12.38;81.69
81162;BME280;70638;-33.792;151.032;2023-07-29T11:19:39;101512.41;;;12.35;81.42
81162;BME280;70638;-33.792;151.032;2023-07-29T11:22:10;101515.06;;;12.27;81.62
81162;BME280;70638;-33.792;151.032;2023-07-29T11:24:42;101515.98;;;12.18;82.65
81162;BME280;70638;-33.792;151.032;2023-07-29T11:27:13;101518.78;;;12.21;82.86
81162;BME280;70638;-33.792;151.032;2023-07-29T11:29:41;101526.01;;;12.23;82.69
81162;BME280;70638;-33.792;151.032;2023-07-29T11:32:16;101530.81;;;12.20;83.27
81162;BME280;70638;-33.792;151.032;2023-07-29T11:34:43;101529.95;;;12.13;83.42
81162;BME280;70638;-33.792;151.032;2023-07-29T11:37:12;101531.75;;;12.02;83.86
81162;BME280;70638;-33.792;151.032;2023-07-29T11:39:43;101530.73;;;11.90;84.28
81162;BME280;70638;-33.792;151.032;2023-07-29T11:42:13;101533.81;;;11.80;83.97
81162;BME280;70638;-33.792;151.032;2023-07-29T11:44:43;101529.95;;;11.73;84.49
81162;BME280;70638;-33.792;151.032;2023-07-29T11:47:14;101532.95;;;11.67;84.69
81162;BME280;70638;-33.792;151.032;2023-07-29T11:49:44;101530.69;;;11.63;84.79
81162;BME280;70638;-33.792;151.032;2023-07-29T11:52:14;101539.06;;;11.60;85.22
81162;BME280;70638;-33.792;151.032;2023-07-29T11:54:46;101542.93;;;11.53;85.33
81162;BME280;70638;-33.792;151.032;2023-07-29T11:57:16;101541.23;;;11.52;84.83
81162;BME280;70638;-33.792;151.032;2023-07-29T11:59:46;101536.77;;;11.52;85.19
81162;BME280;70638;-33.792;151.032;2023-07-29T12:02:20;101533.73;;;11.50;85.22
81162;BME280;70638;-33.792;151.032;2023-07-29T12:04:47;101531.88;;;11.44;85.54
81162;BME280;70638;-33.792;151.032;2023-07-29T12:07:17;101532.30;;;11.40;85.57
81162;BME280;70638;-33.792;151.032;2023-07-29T12:09:47;101529.83;;;11.34;85.84
81162;BME280;70638;-33.792;151.032;2023-07-29T12:12:18;101530.16;;;11.32;85.68
81162;BME280;70638;-33.792;151.032;2023-07-29T12:14:54;101531.66;;;11.29;85.61
81162;BME280;70638;-33.792;151.032;2023-07-29T12:17:18;101530.58;;;11.27;85.56
81162;BME280;70638;-33.792;151.032;2023-07-29T12:19:49;101539.48;;;11.26;85.42
81162;BME280;70638;-33.792;151.032;2023-07-29T12:22:19;101539.67;;;11.25;85.84
81162;BME280;70638;-33.792;151.032;2023-07-29T12:24:51;101534.35;;;11.22;85.78
81162;BME280;70638;-33.792;151.032;2023-07-29T12:27:22;101534.77;;;11.26;85.69
81162;BME280;70638;-33.792;151.032;2023-07-29T12:29:52;101534.19;;;11.31;85.58
81162;BME280;70638;-33.792;151.032;2023-07-29T12:32:25;101530.00;;;11.25;85.00
81162;BME280;70638;-33.792;151.032;2023-07-29T12:34:53;101530.53;;;11.20;85.93
81162;BME280;70638;-33.792;151.032;2023-07-29T12:37:33;101524.48;;;11.19;86.07
81162;BME280;70638;-33.792;151.032;2023-07-29T12:39:53;101521.34;;;11.17;85.69
81162;BME280;70638;-33.792;151.032;2023-07-29T12:42:23;101516.35;;;11.12;85.38
81162;BME280;70638;-33.792;151.032;2023-07-29T12:44:53;101514.50;;;11.10;86.84
81162;BME280;70638;-33.792;151.032;2023-07-29T12:47:23;101513.75;;;11.08;86.88